Time;durP1;ratioP1;P1;durP2;ratioP2;P2;SDS_P1;SDS_P2;PMS_P1;PMS_P2;Temp;Humidity;BMP_temperature;BMP_pressure;BME280_temperature;BME280_humidity;BME280_pressure;Samples;Min_cycle;Max_cycle;Signal;HPM_P1;HPM_P2
2023/08/08 00:01:42;;;;;;;;;;;;;;;13.54;93.78;101427.50;4991259;28;20008;-57
2023/08/08 00:04:07;;;;;;;;;;;;;;;13.49;93.34;101426.50;4988309;28;20537;-57
2023/08/08 00:06:33;;;;;;;;;;;;;;;13.53;93.98;101427.47;4978675;28;19948;-57
2023/08/08 00:08:58;;;;;;;;;;;;;;;13.48;93.81;101427.34;4988341;28;19949;-57
2023/08/08 00:11:23;;;;;;;;;;;;;;;13.43;93.68;101433.38;4986040;28;19989;-57
2023/08/08 00:13:48;;;;;;;;;;;;;;;13.43;94.06;101431.63;4991492;28;19917;-57
2023/08/08 00:16:13;;;;;;;;;;;;;;;13.41;93.77;101430.69;4988494;28;19964;-57
2023/08/08 00:18:39;;;;;;;;;;;;;;;13.39;93.67;101430.66;4988836;28;19920;-57
2023/08/08 00:21:04;;;;;;;;;;;;;;;13.37;93.59;101427.13;4987103;28;20356;-57
2023/08/08 00:23:29;;;;;;;;;;;;;;;13.39;94.03;101438.50;4983085;28;19998;-57
2023/08/08 00:25:54;;;;;;;;;;;;;;;13.39;94.38;101428.03;4987171;28;19957;-57
2023/08/08 00:28:20;;;;;;;;;;;;;;;13.38;94.42;101436.75;4970501;28;19920;-57
2023/08/08 00:30:45;;;;;;;;;;;;;;;13.39;94.43;101437.63;4971926;28;20183;-57
2023/08/08 00:33:10;;;;;;;;;;;;;;;13.41;94.58;101429.81;4987567;28;20261;-57
2023/08/08 00:35:35;;;;;;;;;;;;;;;13.43;94.24;101428.13;4988525;28;19929;-57
2023/08/08 00:38:00;;;;;;;;;;;;;;;13.43;94.41;101413.28;4988387;28;20387;-57
2023/08/08 00:40:26;;;;;;;;;;;;;;;13.44;94.67;101408.94;4988511;28;19917;-57
2023/08/08 00:42:51;;;;;;;;;;;;;;;13.48;95.05;101410.75;4988146;28;20403;-57
2023/08/08 00:45:16;;;;;;;;;;;;;;;13.45;94.86;101410.69;4988946;28;20372;-57
2023/08/08 00:47:41;;;;;;;;;;;;;;;13.45;94.60;101413.31;4983907;28;20024;-57
2023/08/08 00:50:08;;;;;;;;;;;;;;;13.48;95.14;101409.00;4979031;28;20399;-57
2023/08/08 00:52:34;;;;;;;;;;;;;;;13.49;95.24;101412.53;4981275;28;19920;-56
2023/08/08 00:54:59;;;;;;;;;;;;;;;13.61;95.99;101407.53;4982638;28;19917;-57
2023/08/08 00:57:24;;;;;;;;;;;;;;;13.53;95.04;101403.91;4982071;28;19918;-57
2023/08/08 00:59:49;;;;;;;;;;;;;;;13.49;94.75;101402.94;4986395;28;20380;-57
2023/08/08 01:02:15;;;;;;;;;;;;;;;13.52;95.05;101407.38;4982960;28;20365;-57
2023/08/08 01:04:40;;;;;;;;;;;;;;;13.52;95.30;101412.59;4990310;28;19968;-57
2023/08/08 01:07:17;;;;;;;;;;;;;;;13.52;94.97;101412.59;4986702;28;20140;-56
2023/08/08 01:09:47;;;;;;;;;;;;;;;13.53;95.61;101417.88;4978391;28;19922;-57
2023/08/08 01:12:13;;;;;;;;;;;;;;;13.54;96.10;101419.63;4982852;28;19917;-57
2023/08/08 01:14:39;;;;;;;;;;;;;;;13.56;95.92;101417.06;4985806;28;19922;-57
2023/08/08 01:17:05;;;;;;;;;;;;;;;13.57;95.93;101410.97;4985265;28;19918;-57
2023/08/08 01:19:31;;;;;;;;;;;;;;;13.55;95.92;101407.41;4990106;28;20004;-57
2023/08/08 01:22:02;;;;;;;;;;;;;;;13.56;96.18;101403.97;4989276;28;20428;-57
2023/08/08 01:24:30;;;;;;;;;;;;;;;13.54;96.09;101398.69;4989960;28;20000;-57
2023/08/08 01:26:56;;;;;;;;;;;;;;;13.55;95.97;101396.94;4989590;28;19918;-57
2023/08/08 01:29:21;;;;;;;;;;;;;;;13.55;95.73;101397.81;4989184;28;19920;-57
2023/08/08 01:31:46;;;;;;;;;;;;;;;13.59;96.65;101414.50;4990028;28;19914;-57
2023/08/08 01:34:12;;;;;;;;;;;;;;;13.61;96.97;101414.53;4989847;28;20012;-57
2023/08/08 01:36:59;;;;;;;;;;;;;;;13.61;96.89;101406.66;4988655;28;19937;-57
2023/08/08 01:39:28;;;;;;;;;;;;;;;13.61;97.11;101402.31;4990447;28;20427;-57
2023/08/08 01:41:58;;;;;;;;;;;;;;;13.61;97.23;101397.06;4979968;28;20000;-57
2023/08/08 01:44:24;;;;;;;;;;;;;;;13.60;96.67;101399.66;4993208;28;19918;-57
2023/08/08 01:46:50;;;;;;;;;;;;;;;13.62;96.74;101397.97;4993089;28;19964;-57
2023/08/08 01:49:15;;;;;;;;;;;;;;;13.62;96.89;101396.22;4993739;28;19953;-57
2023/08/08 01:51:40;;;;;;;;;;;;;;;13.65;97.74;101398.88;4990505;28;19914;-57
2023/08/08 01:54:06;;;;;;;;;;;;;;;13.62;97.19;101393.59;4992470;28;19920;-57
2023/08/08 01:56:31;;;;;;;;;;;;;;;13.65;97.88;101398.88;4990632;28;20287;-57
2023/08/08 01:58:56;;;;;;;;;;;;;;;13.63;97.11;101384.00;4994143;28;20387;-57
2023/08/08 02:01:21;;;;;;;;;;;;;;;13.62;97.25;101375.28;4988553;28;19921;-57
2023/08/08 02:03:47;;;;;;;;;;;;;;;13.61;97.03;101378.72;4987550;28;20004;-57
2023/08/08 02:06:12;;;;;;;;;;;;;;;13.65;98.05;101379.69;4992437;28;19921;-57
2023/08/08 02:08:37;;;;;;;;;;;;;;;13.59;97.44;101377.84;4993334;28;20384;-57
2023/08/08 02:11:02;;;;;;;;;;;;;;;13.60;98.08;101379.59;4992581;28;19926;-57
2023/08/08 02:13:27;;;;;;;;;;;;;;;13.54;97.48;101379.47;4990495;28;20431;-57
2023/08/08 02:15:53;;;;;;;;;;;;;;;13.52;97.86;101375.94;4988806;28;19918;-57
2023/08/08 02:18:18;;;;;;;;;;;;;;;13.48;97.88;101385.47;4976005;28;19918;-57
2023/08/08 02:20:43;;;;;;;;;;;;;;;13.45;97.78;101380.16;4993543;28;19921;-57
2023/08/08 02:23:08;;;;;;;;;;;;;;;13.44;98.08;101367.94;4991424;28;19914;-57
2023/08/08 02:25:33;;;;;;;;;;;;;;;13.43;97.94;101371.41;4992158;28;20288;-57
2023/08/08 02:27:59;;;;;;;;;;;;;;;13.41;98.57;101366.97;4994072;28;19921;-57
2023/08/08 02:30:24;;;;;;;;;;;;;;;13.41;99.11;101370.47;4987196;28;19920;-57
2023/08/08 02:32:49;;;;;;;;;;;;;;;13.39;99.35;101359.09;4970287;28;19917;-57
2023/08/08 02:35:14;;;;;;;;;;;;;;;13.38;99.29;101365.19;4985174;28;20300;-57
2023/08/08 02:37:39;;;;;;;;;;;;;;;13.36;99.60;101354.69;4991336;28;19963;-57
2023/08/08 02:40:05;;;;;;;;;;;;;;;13.36;99.32;101354.69;4991142;28;20295;-57
2023/08/08 02:42:30;;;;;;;;;;;;;;;13.35;99.38;101357.28;4992650;28;19917;-57
2023/08/08 02:44:55;;;;;;;;;;;;;;;13.35;99.31;101352.94;4992412;28;19964;-58
2023/08/08 02:47:21;;;;;;;;;;;;;;;13.37;99.34;101350.34;4991208;28;20428;-57
2023/08/08 02:49:46;;;;;;;;;;;;;;;13.37;99.77;101340.75;4990269;28;20395;-57
2023/08/08 02:52:11;;;;;;;;;;;;;;;13.36;99.67;101336.34;4986430;28;19913;-57
2023/08/08 02:54:36;;;;;;;;;;;;;;;13.38;99.92;101333.78;4992882;28;19972;-57
2023/08/08 02:57:02;;;;;;;;;;;;;;;13.35;100.00;101332.00;4991840;28;19909;-57
2023/08/08 02:59:27;;;;;;;;;;;;;;;13.32;100.00;101347.56;4992881;28;19925;-57
2023/08/08 03:01:52;;;;;;;;;;;;;;;13.33;100.00;101344.13;4991783;28;19967;-57
2023/08/08 03:04:17;;;;;;;;;;;;;;;13.34;100.00;101345.94;4991869;28;19995;-57
2023/08/08 03:06:43;;;;;;;;;;;;;;;13.34;100.00;101345.94;4990993;28;19910;-57
2023/08/08 03:09:08;;;;;;;;;;;;;;;13.32;100.00;101342.34;4990881;28;19968;-57
2023/08/08 03:11:33;;;;;;;;;;;;;;;13.32;100.00;101346.72;4990628;28;19940;-57
2023/08/08 03:13:58;;;;;;;;;;;;;;;13.27;100.00;101350.97;4991537;28;20357;-57
2023/08/08 03:16:23;;;;;;;;;;;;;;;13.28;100.00;101344.88;4991380;28;19921;-57
2023/08/08 03:18:49;;;;;;;;;;;;;;;13.26;100.00;101349.22;4990939;28;19924;-57
2023/08/08 03:21:14;;;;;;;;;;;;;;;13.26;100.00;101342.22;4991200;28;19986;-57
2023/08/08 03:23:39;;;;;;;;;;;;;;;13.24;100.00;101336.09;4991867;28;19914;-57
2023/08/08 03:26:05;;;;;;;;;;;;;;;13.25;100.00;101335.22;4992560;28;19922;-57
2023/08/08 03:28:30;;;;;;;;;;;;;;;13.26;100.00;101333.50;4993122;28;19910;-57
2023/08/08 03:30:55;;;;;;;;;;;;;;;13.26;100.00;101330.88;4990999;28;19917;-57
2023/08/08 03:33:20;;;;;;;;;;;;;;;13.27;100.00;101333.53;4983025;28;20001;-57
2023/08/08 03:35:46;;;;;;;;;;;;;;;13.35;100.00;101331.09;4991686;28;19956;-57
2023/08/08 03:38:11;;;;;;;;;;;;;;;13.31;100.00;101334.47;4992814;28;19916;-57
2023/08/08 03:40:36;;;;;;;;;;;;;;;13.30;100.00;101332.72;4991398;28;19917;-57
2023/08/08 03:43:01;;;;;;;;;;;;;;;13.29;100.00;101331.81;4992700;28;20368;-57
2023/08/08 03:45:27;;;;;;;;;;;;;;;13.26;100.00;101334.38;4992032;28;19996;-57
2023/08/08 03:47:52;;;;;;;;;;;;;;;13.24;100.00;101333.47;4990386;28;20364;-57
2023/08/08 03:50:18;;;;;;;;;;;;;;;13.23;100.00;101332.56;4982650;28;19984;-57
2023/08/08 03:52:43;;;;;;;;;;;;;;;13.25;100.00;101332.59;4983428;28;19928;-57
2023/08/08 03:55:08;;;;;;;;;;;;;;;13.20;100.00;101332.50;4987469;28;19922;-57
2023/08/08 03:57:33;;;;;;;;;;;;;;;13.19;100.00;101330.78;4991264;28;19996;-57
2023/08/08 03:59:59;;;;;;;;;;;;;;;13.19;100.00;101327.25;4988458;28;19919;-57
2023/08/08 04:02:24;;;;;;;;;;;;;;;13.25;100.00;101336.97;4988297;28;19914;-57
2023/08/08 04:04:49;;;;;;;;;;;;;;;13.14;100.00;101328.91;4990766;28;19925;-57
2023/08/08 04:07:15;;;;;;;;;;;;;;;13.08;100.00;101327.03;4971841;28;19914;-57
2023/08/08 04:09:40;;;;;;;;;;;;;;;13.07;100.00;101327.88;4987689;28;19944;-57
2023/08/08 04:12:06;;;;;;;;;;;;;;;13.07;100.00;101324.41;4990134;28;19936;-57
2023/08/08 04:14:31;;;;;;;;;;;;;;;13.04;100.00;101326.06;4990194;28;19921;-57
2023/08/08 04:16:56;;;;;;;;;;;;;;;13.04;100.00;101333.94;4990289;28;19914;-57
2023/08/08 04:19:21;;;;;;;;;;;;;;;13.04;100.00;101331.31;4988885;28;20349;-57
2023/08/08 04:21:46;;;;;;;;;;;;;;;12.96;100.00;101317.22;4986673;28;20342;-57
2023/08/08 04:24:12;;;;;;;;;;;;;;;12.94;100.00;101325.88;4987080;28;19913;-57
2023/08/08 04:26:37;;;;;;;;;;;;;;;12.92;100.00;101327.53;4983021;28;19918;-57
2023/08/08 04:29:03;;;;;;;;;;;;;;;12.91;100.00;101326.69;4972859;28;19968;-57
2023/08/08 04:31:28;;;;;;;;;;;;;;;12.94;100.00;101334.59;4985036;28;19913;-57
2023/08/08 04:33:59;;;;;;;;;;;;;;;12.91;100.00;101329.28;4987868;28;19956;-57
2023/08/08 04:36:25;;;;;;;;;;;;;;;12.86;100.00;101325.69;4981941;28;19976;-57
2023/08/08 04:38:50;;;;;;;;;;;;;;;12.91;100.00;101324.06;4991353;28;20265;-57
2023/08/08 04:41:16;;;;;;;;;;;;;;;12.86;100.00;101337.03;4989571;28;19913;-57
2023/08/08 04:43:41;;;;;;;;;;;;;;;12.90;100.00;101329.25;4986891;28;19914;-57
2023/08/08 04:46:06;;;;;;;;;;;;;;;12.90;100.00;101327.50;4987471;28;19980;-57
2023/08/08 04:48:32;;;;;;;;;;;;;;;12.87;100.00;101336.19;4983570;28;19933;-57
2023/08/08 04:50:57;;;;;;;;;;;;;;;12.87;100.00;101332.69;4980525;28;19918;-57
2023/08/08 04:53:23;;;;;;;;;;;;;;;12.92;100.00;101331.06;4988832;28;19936;-57
2023/08/08 04:55:48;;;;;;;;;;;;;;;12.81;100.00;101338.66;4989148;28;20048;-57
2023/08/08 04:58:13;;;;;;;;;;;;;;;12.83;100.00;101330.84;4980298;28;19913;-57
2023/08/08 05:00:38;;;;;;;;;;;;;;;12.78;100.00;101327.25;4981241;28;19918;-57
2023/08/08 05:03:03;;;;;;;;;;;;;;;12.82;100.00;101329.97;4981849;28;19918;-57
2023/08/08 05:05:29;;;;;;;;;;;;;;;12.77;100.00;101325.50;4981508;28;20379;-57
2023/08/08 05:07:54;;;;;;;;;;;;;;;12.75;100.00;101338.53;4982539;28;20408;-57
2023/08/08 05:10:19;;;;;;;;;;;;;;;12.76;100.00;101329.84;4982828;28;19918;-57
2023/08/08 05:12:44;;;;;;;;;;;;;;;12.78;100.00;101324.66;4979331;28;19914;-57
2023/08/08 05:15:09;;;;;;;;;;;;;;;12.80;100.00;101329.06;4989951;28;19918;-57
2023/08/08 05:17:35;;;;;;;;;;;;;;;12.82;100.00;101329.97;4989766;28;20491;-57
2023/08/08 05:20:00;;;;;;;;;;;;;;;12.82;100.00;101329.09;4995014;28;19914;-57
2023/08/08 05:22:26;;;;;;;;;;;;;;;12.85;100.00;101329.16;4987042;28;19916;-57
2023/08/08 05:24:51;;;;;;;;;;;;;;;12.82;100.00;101329.09;4976164;28;19914;-57
2023/08/08 05:27:16;;;;;;;;;;;;;;;12.82;100.00;101316.03;4993307;28;19921;-57
2023/08/08 05:29:41;;;;;;;;;;;;;;;12.83;100.00;101325.63;4994738;28;19949;-57
2023/08/08 05:32:07;;;;;;;;;;;;;;;12.86;100.00;101331.81;4993258;28;19924;-57
2023/08/08 05:34:33;;;;;;;;;;;;;;;12.87;100.00;101332.69;4994482;28;19968;-57
2023/08/08 05:36:58;;;;;;;;;;;;;;;12.90;100.00;101332.75;4993788;28;19918;-57
2023/08/08 05:39:23;;;;;;;;;;;;;;;12.93;100.00;101338.03;4993789;28;19925;-57
2023/08/08 05:41:48;;;;;;;;;;;;;;;12.99;100.00;101330.34;4994841;28;19957;-57
2023/08/08 05:44:13;;;;;;;;;;;;;;;13.02;100.00;101332.13;4994042;28;20466;-57
2023/08/08 05:46:39;;;;;;;;;;;;;;;13.07;100.00;101338.34;4993205;28;20012;-57
2023/08/08 05:49:04;;;;;;;;;;;;;;;13.10;100.00;101334.94;4987189;28;20398;-56
2023/08/08 05:51:29;;;;;;;;;;;;;;;13.17;100.00;101332.47;4985127;28;19926;-57
2023/08/08 05:53:54;;;;;;;;;;;;;;;13.18;100.00;101330.75;4991717;28;20008;-57
2023/08/08 05:56:19;;;;;;;;;;;;;;;13.21;100.00;101325.56;4991394;28;19928;-57
2023/08/08 05:58:45;;;;;;;;;;;;;;;13.30;100.00;101325.75;4989390;28;19972;-57
2023/08/08 06:01:11;;;;;;;;;;;;;;;13.30;100.00;101338.81;4988631;28;19967;-57
2023/08/08 06:03:37;;;;;;;;;;;;;;;13.32;100.00;101338.84;4990065;28;19917;-57
2023/08/08 06:06:03;;;;;;;;;;;;;;;13.32;100.00;101331.88;4990339;28;19914;-57
2023/08/08 06:08:28;;;;;;;;;;;;;;;13.42;100.00;101332.13;4988352;28;20395;-57
2023/08/08 06:10:53;;;;;;;;;;;;;;;13.42;100.00;101329.50;4986003;28;19925;-57
2023/08/08 06:13:18;;;;;;;;;;;;;;;13.44;100.00;101330.41;4992351;28;20296;-57
2023/08/08 06:15:44;;;;;;;;;;;;;;;13.52;100.00;101334.06;4987662;28;20020;-57
2023/08/08 06:18:09;;;;;;;;;;;;;;;13.53;100.00;101338.44;4990074;28;20567;-57
2023/08/08 06:20:34;;;;;;;;;;;;;;;13.53;100.00;101341.06;4986894;28;19913;-57
2023/08/08 06:22:59;;;;;;;;;;;;;;;13.63;100.00;101343.00;4990031;28;20338;-57
2023/08/08 06:25:25;;;;;;;;;;;;;;;13.73;100.00;101344.94;4984760;28;20033;-57
2023/08/08 06:27:50;;;;;;;;;;;;;;;13.79;100.00;101345.88;4983841;28;19914;-57
2023/08/08 06:30:15;;;;;;;;;;;;;;;13.85;100.00;101356.50;4984788;28;19918;-57
2023/08/08 06:32:40;;;;;;;;;;;;;;;13.87;100.00;101349.53;4984659;28;19937;-57
2023/08/08 06:35:06;;;;;;;;;;;;;;;14.04;100.00;101355.09;4988222;28;19925;-57
2023/08/08 06:37:31;;;;;;;;;;;;;;;14.01;100.00;101355.03;4992077;28;19914;-57
2023/08/08 06:39:56;;;;;;;;;;;;;;;14.04;100.00;101348.09;4993187;28;19920;-57
2023/08/08 06:42:21;;;;;;;;;;;;;;;14.08;100.00;101351.66;4992325;28;19972;-57
2023/08/08 06:44:47;;;;;;;;;;;;;;;14.04;100.00;101357.72;4991251;28;20398;-57
2023/08/08 06:47:12;;;;;;;;;;;;;;;14.11;100.00;101349.09;4987396;28;19917;-57
2023/08/08 06:49:37;;;;;;;;;;;;;;;14.09;100.00;101346.44;4986478;28;20029;-57
2023/08/08 06:52:03;;;;;;;;;;;;;;;14.12;100.00;101348.25;4986503;28;20091;-56
2023/08/08 06:54:28;;;;;;;;;;;;;;;14.23;100.00;101348.41;4992353;28;19910;-57
2023/08/08 06:56:56;;;;;;;;;;;;;;;14.18;100.00;101348.34;4993490;28;19920;-57
2023/08/08 06:59:22;;;;;;;;;;;;;;;14.23;100.00;101356.28;4973846;28;19972;-57
2023/08/08 07:01:48;;;;;;;;;;;;;;;14.29;100.00;101353.75;4992252;28;19955;-57
2023/08/08 07:04:13;;;;;;;;;;;;;;;14.37;100.00;101354.78;4999204;28;19953;-57
2023/08/08 07:06:38;;;;;;;;;;;;;;;14.39;100.00;101353.03;4991889;28;20398;-57
2023/08/08 07:09:04;;;;;;;;;;;;;;;14.41;100.00;101346.09;4991680;28;19914;-57
2023/08/08 07:11:29;;;;;;;;;;;;;;;14.46;100.00;101347.91;4992643;28;19913;-57
2023/08/08 07:13:54;;;;;;;;;;;;;;;14.67;100.00;101353.53;4992922;28;20487;-57
2023/08/08 07:16:19;;;;;;;;;;;;;;;14.76;100.00;101361.53;4990170;28;19918;-57
2023/08/08 07:18:44;;;;;;;;;;;;;;;14.81;100.00;101344.97;4991474;28;19913;-57
2023/08/08 07:21:10;;;;;;;;;;;;;;;14.93;100.00;101351.28;4993458;28;19917;-57
2023/08/08 07:23:35;;;;;;;;;;;;;;;15.00;100.00;101348.72;4991466;28;20308;-57
2023/08/08 07:26:00;;;;;;;;;;;;;;;15.09;100.00;101352.34;4991065;28;20355;-57
2023/08/08 07:28:25;;;;;;;;;;;;;;;15.16;100.00;101347.19;4992567;28;20409;-57
2023/08/08 07:30:50;;;;;;;;;;;;;;;15.33;100.00;101344.78;4992771;28;20082;-57
2023/08/08 07:33:16;;;;;;;;;;;;;;;15.30;100.00;101351.72;4992935;28;19917;-57
2023/08/08 07:35:41;;;;;;;;;;;;;;;15.32;100.00;101354.38;4992182;28;19922;-57
2023/08/08 07:38:06;;;;;;;;;;;;;;;15.35;100.00;101354.44;4992846;28;20336;-57
2023/08/08 07:40:32;;;;;;;;;;;;;;;15.58;100.00;101349.44;4992123;28;20001;-57
2023/08/08 07:42:58;;;;;;;;;;;;;;;15.48;100.00;101343.22;4992552;28;19910;-58
2023/08/08 07:45:23;;;;;;;;;;;;;;;15.50;100.00;101348.47;4991399;28;20387;-57
2023/08/08 07:47:48;;;;;;;;;;;;;;;15.53;99.81;101340.63;4992737;28;19914;-58
2023/08/08 07:50:13;;;;;;;;;;;;;;;15.63;95.86;101344.25;4991750;28;19969;-57
2023/08/08 07:52:40;;;;;;;;;;;;;;;15.64;94.26;101340.72;4991295;28;19914;-57
2023/08/08 07:55:06;;;;;;;;;;;;;;;15.60;94.13;101349.47;4988569;28;19961;-57
2023/08/08 07:57:34;;;;;;;;;;;;;;;15.59;94.67;101347.69;4975164;28;19960;-57
2023/08/08 08:00:04;;;;;;;;;;;;;;;15.65;93.57;101343.38;4989737;28;19917;-57
2023/08/08 08:02:30;;;;;;;;;;;;;;;15.64;94.78;101352.13;4979363;28;19906;-57
2023/08/08 08:04:55;;;;;;;;;;;;;;;15.83;93.48;101349.75;4989462;28;20277;-58
2023/08/08 08:07:20;;;;;;;;;;;;;;;15.91;92.38;101345.41;4988400;28;20900;-57
2023/08/08 08:09:46;;;;;;;;;;;;;;;16.04;91.35;101350.81;4990248;28;20376;-58
2023/08/08 08:12:11;;;;;;;;;;;;;;;16.00;92.21;101349.88;4986002;28;19925;-57
2023/08/08 08:14:37;;;;;;;;;;;;;;;15.97;92.81;101344.59;4984939;28;19969;-57
2023/08/08 08:17:03;;;;;;;;;;;;;;;15.98;93.49;101352.50;4968926;28;20351;-57
2023/08/08 08:19:28;;;;;;;;;;;;;;;16.02;93.41;101350.78;4989337;28;19920;-58
2023/08/08 08:21:54;;;;;;;;;;;;;;;16.15;92.64;101349.16;4991367;28;19918;-57
2023/08/08 08:24:20;;;;;;;;;;;;;;;16.15;92.58;101349.16;4990050;28;19917;-57
2023/08/08 08:26:45;;;;;;;;;;;;;;;16.26;90.59;101352.75;4987081;28;20166;-57
2023/08/08 08:29:10;;;;;;;;;;;;;;;16.24;92.73;101357.13;4990430;28;20004;-57
2023/08/08 08:31:37;;;;;;;;;;;;;;;16.29;93.89;101346.63;4990870;28;19984;-58
2023/08/08 08:34:02;;;;;;;;;;;;;;;16.48;91.34;101348.53;4988678;28;20392;-58
2023/08/08 08:36:27;;;;;;;;;;;;;;;16.44;91.47;101348.53;4983323;28;19922;-58
2023/08/08 08:38:53;;;;;;;;;;;;;;;16.36;92.48;101353.69;4982030;28;20019;-57
2023/08/08 08:41:19;;;;;;;;;;;;;;;16.44;90.03;101356.41;4987304;28;19914;-57
2023/08/08 08:43:45;;;;;;;;;;;;;;;16.37;90.45;101355.47;4966186;28;20888;-57
2023/08/08 08:46:11;;;;;;;;;;;;;;;16.32;90.64;101344.03;4986489;28;19989;-57
2023/08/08 08:48:36;;;;;;;;;;;;;;;16.38;91.16;101346.72;4987846;28;20292;-58
2023/08/08 08:51:02;;;;;;;;;;;;;;;16.52;89.32;101358.22;4979310;28;20388;-57
2023/08/08 08:53:28;;;;;;;;;;;;;;;16.55;87.48;101353.84;4985934;28;20063;-57
2023/08/08 08:55:53;;;;;;;;;;;;;;;16.48;88.86;101353.81;4983926;28;20240;-57
2023/08/08 08:58:19;;;;;;;;;;;;;;;16.57;87.61;101357.34;4986477;28;20290;-58
2023/08/08 09:00:46;;;;;;;;;;;;;;;16.63;87.20;101360.06;4980589;28;20075;-57
2023/08/08 09:03:14;;;;;;;;;;;;;;;16.61;88.18;101364.41;4986871;28;19929;-57
2023/08/08 09:05:41;;;;;;;;;;;;;;;16.63;87.53;101363.56;4986308;28;19913;-57
2023/08/08 09:08:06;;;;;;;;;;;;;;;16.65;85.02;101366.19;4981910;28;20396;-57
2023/08/08 09:10:31;;;;;;;;;;;;;;;16.65;82.73;101363.56;4990569;28;20044;-57
2023/08/08 09:12:57;;;;;;;;;;;;;;;16.52;82.33;101360.84;4975319;28;20395;-57
2023/08/08 09:15:22;;;;;;;;;;;;;;;16.46;83.66;101358.16;4987395;28;19917;-57
2023/08/08 09:17:48;;;;;;;;;;;;;;;16.45;84.52;101360.78;4988573;28;19913;-57
2023/08/08 09:20:13;;;;;;;;;;;;;;;16.50;84.37;101362.59;4985769;28;20391;-57
2023/08/08 09:22:38;;;;;;;;;;;;;;;16.41;84.87;101357.25;4989541;28;19933;-57
2023/08/08 09:25:05;;;;;;;;;;;;;;;16.54;85.05;101365.22;4991140;28;19909;-57
2023/08/08 09:27:30;;;;;;;;;;;;;;;16.50;84.70;101367.84;4989953;28;20278;-57
2023/08/08 09:29:55;;;;;;;;;;;;;;;16.60;83.99;101370.56;4991020;28;20436;-57
2023/08/08 09:32:20;;;;;;;;;;;;;;;16.52;84.90;101371.38;4973576;28;19914;-58
2023/08/08 09:34:46;;;;;;;;;;;;;;;16.51;85.41;101364.34;4991499;28;20380;-57
2023/08/08 09:37:11;;;;;;;;;;;;;;;16.56;84.34;101368.78;4989706;28;19939;-57
2023/08/08 09:39:36;;;;;;;;;;;;;;;16.72;83.29;101377.66;4978895;28;19917;-57
2023/08/08 09:42:03;;;;;;;;;;;;;;;16.74;82.86;101379.41;4991317;28;19969;-57
2023/08/08 09:44:29;;;;;;;;;;;;;;;16.57;85.10;101368.78;4991198;28;19992;-57
2023/08/08 09:46:55;;;;;;;;;;;;;;;16.83;83.96;101381.25;4990799;28;20001;-57
2023/08/08 09:49:21;;;;;;;;;;;;;;;16.93;84.45;101361.13;4989084;28;19968;-57
2023/08/08 09:51:47;;;;;;;;;;;;;;;17.08;83.14;101365.63;4990901;28;19914;-57
2023/08/08 09:54:13;;;;;;;;;;;;;;;17.15;81.12;101360.38;4989932;28;19920;-57
2023/08/08 09:56:39;;;;;;;;;;;;;;;17.16;84.28;101359.50;4987390;28;19926;-57
2023/08/08 09:59:05;;;;;;;;;;;;;;;17.43;82.19;101368.38;4988086;28;20372;-57
2023/08/08 10:01:31;;;;;;;;;;;;;;;17.66;79.08;101362.31;4988696;28;19917;-57
2023/08/08 10:03:56;;;;;;;;;;;;;;;17.67;80.79;101366.69;4971076;28;19914;-57
2023/08/08 10:06:21;;;;;;;;;;;;;;;17.62;79.79;101360.53;4992513;28;19913;-57
2023/08/08 10:08:47;;;;;;;;;;;;;;;17.62;80.46;101363.19;4993510;28;20292;-57
2023/08/08 10:11:14;;;;;;;;;;;;;;;17.73;80.87;101358.81;4993811;28;20009;-57
2023/08/08 10:13:46;;;;;;;;;;;;;;;17.97;76.75;101355.34;4994202;28;19910;-57
2023/08/08 10:16:12;;;;;;;;;;;;;;;18.02;75.56;101360.66;4989465;28;20008;-57
2023/08/08 10:18:37;;;;;;;;;;;;;;;18.06;74.25;101354.50;4990966;28;20017;-57
2023/08/08 10:21:04;;;;;;;;;;;;;;;18.13;74.30;101361.53;4993091;28;19913;-57
2023/08/08 10:23:36;;;;;;;;;;;;;;;17.96;74.00;101358.00;4976400;28;20347;-57
2023/08/08 10:26:02;;;;;;;;;;;;;;;17.88;75.83;101356.19;4992321;28;19932;-57
2023/08/08 10:28:27;;;;;;;;;;;;;;;17.89;74.65;101360.59;4990572;28;19913;-57
2023/08/08 10:30:57;;;;;;;;;;;;;;;17.80;75.70;101372.88;4985192;28;19914;-56
2023/08/08 10:33:24;;;;;;;;;;;;;;;17.79;74.14;101371.13;4992463;28;19918;-57
2023/08/08 10:35:57;;;;;;;;;;;;;;;17.69;74.79;101368.47;4991909;28;19933;-57
2023/08/08 10:38:22;;;;;;;;;;;;;;;17.54;75.52;101365.81;4992315;28;19914;-58
2023/08/08 10:40:55;;;;;;;;;;;;;;;17.65;76.30;101365.81;4992485;28;19922;-57
2023/08/08 10:43:25;;;;;;;;;;;;;;;17.81;77.94;101359.69;4992407;28;19914;-57
2023/08/08 10:45:50;;;;;;;;;;;;;;;18.07;74.96;101366.81;4992221;28;19921;-57
2023/08/08 10:48:18;;;;;;;;;;;;;;;18.02;74.05;101369.44;4991906;28;19913;-57
2023/08/08 10:50:43;;;;;;;;;;;;;;;18.06;72.87;101359.75;4988842;28;19953;-57
2023/08/08 10:53:10;;;;;;;;;;;;;;;17.83;73.12;101364.97;4992706;28;19968;-57
2023/08/08 10:55:36;;;;;;;;;;;;;;;17.47;75.99;101357.00;4992290;28;19918;-57
2023/08/08 10:58:05;;;;;;;;;;;;;;;17.50;75.17;101353.50;4991192;28;20363;-57
2023/08/08 11:00:31;;;;;;;;;;;;;;;17.17;77.35;101357.75;4990589;28;19914;-57
2023/08/08 11:02:57;;;;;;;;;;;;;;;17.11;78.72;101358.59;4992195;28;19928;-57
2023/08/08 11:05:23;;;;;;;;;;;;;;;17.47;77.96;101354.34;4991715;28;19921;-57
2023/08/08 11:07:48;;;;;;;;;;;;;;;17.62;79.59;101355.28;4992904;28;19913;-57
2023/08/08 11:10:13;;;;;;;;;;;;;;;17.97;78.87;101346.59;4991848;28;20387;-57
2023/08/08 11:12:39;;;;;;;;;;;;;;;18.16;79.73;101345.72;4990058;28;19940;-57
2023/08/08 11:15:04;;;;;;;;;;;;;;;18.34;79.60;101343.97;4990497;28;19918;-57
2023/08/08 11:17:30;;;;;;;;;;;;;;;18.44;78.63;101340.44;4989038;28;19981;-57
2023/08/08 11:19:55;;;;;;;;;;;;;;;18.50;77.64;101342.19;4991046;28;19914;-57
2023/08/08 11:22:21;;;;;;;;;;;;;;;18.57;74.88;101344.81;4992061;28;19925;-57
2023/08/08 11:24:47;;;;;;;;;;;;;;;18.54;72.06;101344.81;4992267;28;19931;-57
2023/08/08 11:27:12;;;;;;;;;;;;;;;18.67;70.85;101344.78;4973280;28;20380;-57
2023/08/08 11:29:37;;;;;;;;;;;;;;;18.81;72.08;101345.63;4990094;28;19922;-57
2023/08/08 11:32:03;;;;;;;;;;;;;;;18.97;72.48;101341.22;4987670;28;20015;-57
2023/08/08 11:34:34;;;;;;;;;;;;;;;19.25;71.12;101342.00;4992519;28;20307;-57
2023/08/08 11:37:00;;;;;;;;;;;;;;;19.27;68.98;101329.66;4989933;28;19936;-57
2023/08/08 11:39:26;;;;;;;;;;;;;;;19.14;69.52;101335.88;4992288;28;19910;-57
2023/08/08 11:41:52;;;;;;;;;;;;;;;19.07;70.90;101336.78;4991208;28;20315;-57
2023/08/08 11:44:17;;;;;;;;;;;;;;;19.08;69.85;101334.13;4990296;28;19943;-57
2023/08/08 11:46:44;;;;;;;;;;;;;;;19.23;71.18;101343.78;4992245;28;20364;-57
2023/08/08 11:49:09;;;;;;;;;;;;;;;19.31;71.05;101329.66;4984934;28;19918;-57
2023/08/08 11:51:35;;;;;;;;;;;;;;;19.46;67.92;101343.69;4989434;28;19925;-57
2023/08/08 11:54:01;;;;;;;;;;;;;;;19.26;67.94;101343.78;4989728;28;19917;-57
2023/08/08 11:56:26;;;;;;;;;;;;;;;19.11;67.60;101347.34;4990458;28;19918;-57
2023/08/08 11:58:52;;;;;;;;;;;;;;;18.96;69.20;101339.47;4988484;28;19936;-57
2023/08/08 12:01:24;;;;;;;;;;;;;;;19.01;68.07;101347.38;4982809;28;20433;-57
2023/08/08 12:03:50;;;;;;;;;;;;;;;18.84;69.40;101345.66;4988863;28;19914;-57
2023/08/08 12:06:15;;;;;;;;;;;;;;;18.77;70.82;101330.72;4988692;28;20312;-58
2023/08/08 12:08:42;;;;;;;;;;;;;;;18.68;69.78;101339.50;4991112;28;19918;-57
2023/08/08 12:11:08;;;;;;;;;;;;;;;18.55;71.44;101332.50;4991271;28;19917;-57
2023/08/08 12:13:35;;;;;;;;;;;;;;;18.86;66.30;101340.38;4981040;28;19924;-57
2023/08/08 12:16:01;;;;;;;;;;;;;;;18.62;69.56;101336.88;4991089;28;19929;-57
2023/08/08 12:18:26;;;;;;;;;;;;;;;19.01;66.34;101326.25;4991248;28;20304;-57
2023/08/08 12:20:51;;;;;;;;;;;;;;;19.19;66.77;101335.84;4990139;28;19940;-57
2023/08/08 12:23:16;;;;;;;;;;;;;;;19.35;67.75;101326.09;4990356;28;19920;-57
2023/08/08 12:25:42;;;;;;;;;;;;;;;19.62;66.30;101327.72;4990808;28;19941;-58